sensor_id;sensor_type;location;lat;lon;timestamp;temperature;humidity
16767;DHT22;8501;49.926;8.404;2023-04-07T00:00:49;8.60;99.90
16767;DHT22;8501;49.926;8.404;2023-04-07T00:03:15;8.60;99.90
16767;DHT22;8501;49.926;8.404;2023-04-07T00:05:41;8.60;99.90
16767;DHT22;8501;49.926;8.404;2023-04-07T00:08:06;8.60;99.90
16767;DHT22;8501;49.926;8.404;2023-04-07T00:10:32;8.60;99.90
16767;DHT22;8501;49.926;8.404;2023-04-07T00:12:58;8.70;99.90
16767;DHT22;8501;49.926;8.404;2023-04-07T00:15:24;8.60;99.90
16767;DHT22;8501;49.926;8.404;2023-04-07T00:17:50;8.60;99.90
16767;DHT22;8501;49.926;8.404;2023-04-07T00:20:16;8.60;99.90
16767;DHT22;8501;49.926;8.404;2023-04-07T00:22:42;8.70;99.90
16767;DHT22;8501;49.926;8.404;2023-04-07T00:25:08;8.60;99.90
16767;DHT22;8501;49.926;8.404;2023-04-07T00:27:34;8.60;99.90
16767;DHT22;8501;49.926;8.404;2023-04-07T00:30:00;8.50;99.90
16767;DHT22;8501;49.926;8.404;2023-04-07T00:32:25;8.60;99.90
16767;DHT22;8501;49.926;8.404;2023-04-07T00:34:51;8.60;99.90
16767;DHT22;8501;49.926;8.404;2023-04-07T00:37:16;8.60;99.90
16767;DHT22;8501;49.926;8.404;2023-04-07T00:39:43;8.50;99.90
16767;DHT22;8501;49.926;8.404;2023-04-07T00:42:09;8.50;99.90
16767;DHT22;8501;49.926;8.404;2023-04-07T00:44:35;8.40;99.90
16767;DHT22;8501;49.926;8.404;2023-04-07T00:47:00;8.50;99.90
16767;DHT22;8501;49.926;8.404;2023-04-07T00:49:26;8.50;99.90
16767;DHT22;8501;49.926;8.404;2023-04-07T00:51:56;8.50;99.90
16767;DHT22;8501;49.926;8.404;2023-04-07T00:54:23;8.50;99.90
16767;DHT22;8501;49.926;8.404;2023-04-07T00:56:48;8.40;99.90
16767;DHT22;8501;49.926;8.404;2023-04-07T00:59:14;8.50;99.90
16767;DHT22;8501;49.926;8.404;2023-04-07T01:01:44;8.50;99.90
16767;DHT22;8501;49.926;8.404;2023-04-07T01:06:50;8.50;99.90
16767;DHT22;8501;49.926;8.404;2023-04-07T01:09:22;8.50;99.90
16767;DHT22;8501;49.926;8.404;2023-04-07T01:11:58;8.40;99.90
16767;DHT22;8501;49.926;8.404;2023-04-07T01:14:39;8.40;99.90
16767;DHT22;8501;49.926;8.404;2023-04-07T01:17:06;8.40;99.90
16767;DHT22;8501;49.926;8.404;2023-04-07T01:19:52;8.40;99.90
16767;DHT22;8501;49.926;8.404;2023-04-07T01:22:31;8.40;99.90
16767;DHT22;8501;49.926;8.404;2023-04-07T01:30:55;8.40;99.90
16767;DHT22;8501;49.926;8.404;2023-04-07T01:33:23;8.50;99.90
16767;DHT22;8501;49.926;8.404;2023-04-07T01:35:49;8.50;99.90
16767;DHT22;8501;49.926;8.404;2023-04-07T01:38:16;8.50;99.90
16767;DHT22;8501;49.926;8.404;2023-04-07T01:40:43;8.40;99.90
16767;DHT22;8501;49.926;8.404;2023-04-07T01:43:10;8.40;99.90
16767;DHT22;8501;49.926;8.404;2023-04-07T01:45:36;8.50;99.90
16767;DHT22;8501;49.926;8.404;2023-04-07T01:48:05;8.40;99.90
16767;DHT22;8501;49.926;8.404;2023-04-07T01:50:32;8.40;99.90
16767;DHT22;8501;49.926;8.404;2023-04-07T01:52:58;8.40;99.90
16767;DHT22;8501;49.926;8.404;2023-04-07T01:55:24;8.40;99.90
16767;DHT22;8501;49.926;8.404;2023-04-07T01:57:52;8.40;99.90
16767;DHT22;8501;49.926;8.404;2023-04-07T02:00:18;8.50;99.90
16767;DHT22;8501;49.926;8.404;2023-04-07T02:02:44;8.40;99.90
16767;DHT22;8501;49.926;8.404;2023-04-07T02:05:14;8.40;99.90
16767;DHT22;8501;49.926;8.404;2023-04-07T02:07:51;8.40;99.90
16767;DHT22;8501;49.926;8.404;2023-04-07T02:10:21;8.40;99.90
16767;DHT22;8501;49.926;8.404;2023-04-07T02:12:48;8.40;99.90
16767;DHT22;8501;49.926;8.404;2023-04-07T02:15:14;8.40;99.90
16767;DHT22;8501;49.926;8.404;2023-04-07T02:17:43;8.40;99.90
16767;DHT22;8501;49.926;8.404;2023-04-07T02:20:11;8.40;99.90
16767;DHT22;8501;49.926;8.404;2023-04-07T02:22:41;8.40;99.90
16767;DHT22;8501;49.926;8.404;2023-04-07T02:25:26;8.40;99.90
16767;DHT22;8501;49.926;8.404;2023-04-07T02:27:52;8.40;99.90
16767;DHT22;8501;49.926;8.404;2023-04-07T02:30:19;8.30;99.90
16767;DHT22;8501;49.926;8.404;2023-04-07T02:32:44;8.50;99.90
16767;DHT22;8501;49.926;8.404;2023-04-07T02:35:10;8.30;99.90
16767;DHT22;8501;49.926;8.404;2023-04-07T02:37:37;8.30;99.90
16767;DHT22;8501;49.926;8.404;2023-04-07T02:40:03;8.30;99.90
16767;DHT22;8501;49.926;8.404;2023-04-07T02:42:29;8.30;99.90
16767;DHT22;8501;49.926;8.404;2023-04-07T02:44:55;8.30;99.90
16767;DHT22;8501;49.926;8.404;2023-04-07T02:47:20;8.30;99.90
16767;DHT22;8501;49.926;8.404;2023-04-07T02:49:46;8.30;99.90
16767;DHT22;8501;49.926;8.404;2023-04-07T02:52:12;8.30;99.90
16767;DHT22;8501;49.926;8.404;2023-04-07T02:54:37;8.30;99.90
16767;DHT22;8501;49.926;8.404;2023-04-07T02:57:03;8.30;99.90
16767;DHT22;8501;49.926;8.404;2023-04-07T02:59:28;8.30;99.90
16767;DHT22;8501;49.926;8.404;2023-04-07T03:01:54;8.30;99.90
16767;DHT22;8501;49.926;8.404;2023-04-07T03:04:20;8.30;99.90
16767;DHT22;8501;49.926;8.404;2023-04-07T03:06:46;8.30;99.90
16767;DHT22;8501;49.926;8.404;2023-04-07T03:09:12;8.20;99.90
16767;DHT22;8501;49.926;8.404;2023-04-07T03:11:37;8.30;99.90
16767;DHT22;8501;49.926;8.404;2023-04-07T03:14:03;8.30;99.90
16767;DHT22;8501;49.926;8.404;2023-04-07T03:16:28;8.30;99.90
16767;DHT22;8501;49.926;8.404;2023-04-07T03:18:54;8.30;99.90
16767;DHT22;8501;49.926;8.404;2023-04-07T03:21:20;8.30;99.90
16767;DHT22;8501;49.926;8.404;2023-04-07T03:23:46;8.30;99.90
16767;DHT22;8501;49.926;8.404;2023-04-07T03:26:11;8.30;99.90
16767;DHT22;8501;49.926;8.404;2023-04-07T03:28:37;8.20;99.90
16767;DHT22;8501;49.926;8.404;2023-04-07T03:31:02;8.20;99.90
16767;DHT22;8501;49.926;8.404;2023-04-07T03:33:29;8.20;99.90
16767;DHT22;8501;49.926;8.404;2023-04-07T03:35:55;8.20;99.90
16767;DHT22;8501;49.926;8.404;2023-04-07T03:38:21;8.20;99.90
16767;DHT22;8501;49.926;8.404;2023-04-07T03:40:46;8.30;99.90
16767;DHT22;8501;49.926;8.404;2023-04-07T03:43:12;8.30;99.90
16767;DHT22;8501;49.926;8.404;2023-04-07T03:45:40;8.30;99.90
16767;DHT22;8501;49.926;8.404;2023-04-07T03:48:06;8.30;99.90
16767;DHT22;8501;49.926;8.404;2023-04-07T03:50:39;8.20;99.90
16767;DHT22;8501;49.926;8.404;2023-04-07T03:53:05;8.30;99.90
16767;DHT22;8501;49.926;8.404;2023-04-07T03:55:30;8.30;99.90
16767;DHT22;8501;49.926;8.404;2023-04-07T03:57:56;8.20;99.90
16767;DHT22;8501;49.926;8.404;2023-04-07T04:00:22;8.20;99.90
16767;DHT22;8501;49.926;8.404;2023-04-07T04:02:47;8.20;99.90
16767;DHT22;8501;49.926;8.404;2023-04-07T04:05:13;8.20;99.90
16767;DHT22;8501;49.926;8.404;2023-04-07T04:07:38;8.20;99.90
16767;DHT22;8501;49.926;8.404;2023-04-07T04:10:05;8.20;99.90
16767;DHT22;8501;49.926;8.404;2023-04-07T04:12:31;8.20;99.90
16767;DHT22;8501;49.926;8.404;2023-04-07T04:14:57;8.10;99.90
16767;DHT22;8501;49.926;8.404;2023-04-07T04:17:24;8.20;99.90
16767;DHT22;8501;49.926;8.404;2023-04-07T04:19:49;8.20;99.90
16767;DHT22;8501;49.926;8.404;2023-04-07T04:22:15;8.10;99.90
16767;DHT22;8501;49.926;8.404;2023-04-07T04:24:41;8.20;99.90
16767;DHT22;8501;49.926;8.404;2023-04-07T04:27:06;8.20;99.90
16767;DHT22;8501;49.926;8.404;2023-04-07T04:29:32;8.20;99.90
16767;DHT22;8501;49.926;8.404;2023-04-07T04:31:58;8.20;99.90
16767;DHT22;8501;49.926;8.404;2023-04-07T04:34:23;8.10;99.90
16767;DHT22;8501;49.926;8.404;2023-04-07T04:36:49;8.10;99.90
16767;DHT22;8501;49.926;8.404;2023-04-07T04:39:15;8.20;99.90
16767;DHT22;8501;49.926;8.404;2023-04-07T04:41:40;8.20;99.90
16767;DHT22;8501;49.926;8.404;2023-04-07T04:44:06;8.20;99.90
16767;DHT22;8501;49.926;8.404;2023-04-07T04:46:32;8.20;99.90
16767;DHT22;8501;49.926;8.404;2023-04-07T04:48:57;8.20;99.90
16767;DHT22;8501;49.926;8.404;2023-04-07T04:51:23;8.20;99.90
16767;DHT22;8501;49.926;8.404;2023-04-07T04:53:48;8.20;99.90
16767;DHT22;8501;49.926;8.404;2023-04-07T04:56:14;8.20;99.90
16767;DHT22;8501;49.926;8.404;2023-04-07T04:58:40;8.20;99.90
16767;DHT22;8501;49.926;8.404;2023-04-07T05:01:10;8.20;99.90
16767;DHT22;8501;49.926;8.404;2023-04-07T05:03:36;8.20;99.90
16767;DHT22;8501;49.926;8.404;2023-04-07T05:06:01;8.20;99.90
16767;DHT22;8501;49.926;8.404;2023-04-07T05:08:27;8.20;99.90
16767;DHT22;8501;49.926;8.404;2023-04-07T05:10:52;8.20;99.90
16767;DHT22;8501;49.926;8.404;2023-04-07T05:13:19;8.20;99.90
16767;DHT22;8501;49.926;8.404;2023-04-07T05:26:11;8.10;99.90
16767;DHT22;8501;49.926;8.404;2023-04-07T05:28:36;8.10;99.90
16767;DHT22;8501;49.926;8.404;2023-04-07T05:31:02;8.10;99.90
16767;DHT22;8501;49.926;8.404;2023-04-07T05:33:27;8.00;99.90
16767;DHT22;8501;49.926;8.404;2023-04-07T05:35:53;8.10;99.90
16767;DHT22;8501;49.926;8.404;2023-04-07T05:38:18;8.10;99.90
16767;DHT22;8501;49.926;8.404;2023-04-07T05:40:44;8.10;99.90
16767;DHT22;8501;49.926;8.404;2023-04-07T05:43:11;8.00;99.90
16767;DHT22;8501;49.926;8.404;2023-04-07T05:45:36;8.10;99.90
16767;DHT22;8501;49.926;8.404;2023-04-07T05:48:02;8.10;99.90
16767;DHT22;8501;49.926;8.404;2023-04-07T05:50:27;8.10;99.90
16767;DHT22;8501;49.926;8.404;2023-04-07T05:52:53;8.10;99.90
16767;DHT22;8501;49.926;8.404;2023-04-07T05:55:18;8.10;99.90
16767;DHT22;8501;49.926;8.404;2023-04-07T05:57:44;8.10;99.90
16767;DHT22;8501;49.926;8.404;2023-04-07T06:00:10;8.10;99.90
16767;DHT22;8501;49.926;8.404;2023-04-07T06:02:35;8.20;99.90
16767;DHT22;8501;49.926;8.404;2023-04-07T06:05:01;8.10;99.90
16767;DHT22;8501;49.926;8.404;2023-04-07T06:07:27;8.20;99.90
16767;DHT22;8501;49.926;8.404;2023-04-07T06:09:52;8.10;99.90
16767;DHT22;8501;49.926;8.404;2023-04-07T06:12:18;8.10;99.90
16767;DHT22;8501;49.926;8.404;2023-04-07T06:14:50;8.10;99.90
16767;DHT22;8501;49.926;8.404;2023-04-07T06:17:15;8.10;99.90
16767;DHT22;8501;49.926;8.404;2023-04-07T06:19:41;8.20;99.90
16767;DHT22;8501;49.926;8.404;2023-04-07T06:22:07;8.20;99.90
16767;DHT22;8501;49.926;8.404;2023-04-07T06:24:32;8.10;99.90
16767;DHT22;8501;49.926;8.404;2023-04-07T06:26:59;8.20;99.90
16767;DHT22;8501;49.926;8.404;2023-04-07T06:29:25;8.20;99.90
16767;DHT22;8501;49.926;8.404;2023-04-07T06:31:51;8.20;99.90
16767;DHT22;8501;49.926;8.404;2023-04-07T06:34:16;8.20;99.90
16767;DHT22;8501;49.926;8.404;2023-04-07T06:36:42;8.20;99.90
16767;DHT22;8501;49.926;8.404;2023-04-07T06:39:08;8.20;99.90
16767;DHT22;8501;49.926;8.404;2023-04-07T06:41:33;8.10;99.90
16767;DHT22;8501;49.926;8.404;2023-04-07T06:43:59;8.20;99.90
16767;DHT22;8501;49.926;8.404;2023-04-07T06:46:24;8.20;99.90
16767;DHT22;8501;49.926;8.404;2023-04-07T06:48:51;8.20;99.90
16767;DHT22;8501;49.926;8.404;2023-04-07T06:51:17;8.20;99.90
16767;DHT22;8501;49.926;8.404;2023-04-07T06:53:42;8.20;99.90
16767;DHT22;8501;49.926;8.404;2023-04-07T06:56:10;8.20;99.90
16767;DHT22;8501;49.926;8.404;2023-04-07T06:58:36;8.20;99.90
16767;DHT22;8501;49.926;8.404;2023-04-07T07:01:03;8.20;99.90
16767;DHT22;8501;49.926;8.404;2023-04-07T07:03:29;8.20;99.90
16767;DHT22;8501;49.926;8.404;2023-04-07T07:05:59;8.20;99.90
16767;DHT22;8501;49.926;8.404;2023-04-07T07:08:26;8.30;99.90
16767;DHT22;8501;49.926;8.404;2023-04-07T07:10:52;8.30;99.90
16767;DHT22;8501;49.926;8.404;2023-04-07T07:13:19;8.30;99.90
16767;DHT22;8501;49.926;8.404;2023-04-07T07:15:45;8.30;99.90
16767;DHT22;8501;49.926;8.404;2023-04-07T07:18:11;8.30;99.90
16767;DHT22;8501;49.926;8.404;2023-04-07T07:20:37;8.20;99.90
16767;DHT22;8501;49.926;8.404;2023-04-07T07:23:02;8.30;99.90
16767;DHT22;8501;49.926;8.404;2023-04-07T07:25:28;8.30;99.90
16767;DHT22;8501;49.926;8.404;2023-04-07T07:27:54;8.30;99.90
16767;DHT22;8501;49.926;8.404;2023-04-07T07:30:21;8.40;99.90
16767;DHT22;8501;49.926;8.404;2023-04-07T07:32:46;8.40;99.90
16767;DHT22;8501;49.926;8.404;2023-04-07T07:35:12;8.40;99.90
16767;DHT22;8501;49.926;8.404;2023-04-07T07:37:38;8.40;99.90
16767;DHT22;8501;49.926;8.404;2023-04-07T07:40:04;8.50;99.90
16767;DHT22;8501;49.926;8.404;2023-04-07T07:42:30;8.50;99.90
16767;DHT22;8501;49.926;8.404;2023-04-07T07:44:57;8.60;99.90
16767;DHT22;8501;49.926;8.404;2023-04-07T07:47:22;8.50;99.90
16767;DHT22;8501;49.926;8.404;2023-04-07T07:49:48;8.50;99.90
16767;DHT22;8501;49.926;8.404;2023-04-07T07:52:14;8.60;99.90
16767;DHT22;8501;49.926;8.404;2023-04-07T07:54:40;8.50;99.90
16767;DHT22;8501;49.926;8.404;2023-04-07T07:57:06;8.60;99.90
16767;DHT22;8501;49.926;8.404;2023-04-07T07:59:34;8.50;99.90
16767;DHT22;8501;49.926;8.404;2023-04-07T08:02:01;8.50;99.90
16767;DHT22;8501;49.926;8.404;2023-04-07T08:04:26;8.50;99.90
16767;DHT22;8501;49.926;8.404;2023-04-07T08:06:52;8.60;99.90
16767;DHT22;8501;49.926;8.404;2023-04-07T08:09:18;8.60;99.90
16767;DHT22;8501;49.926;8.404;2023-04-07T08:11:44;8.60;99.90
16767;DHT22;8501;49.926;8.404;2023-04-07T08:14:10;8.60;99.90
16767;DHT22;8501;49.926;8.404;2023-04-07T08:16:36;8.60;99.90
16767;DHT22;8501;49.926;8.404;2023-04-07T08:19:01;8.70;99.90
16767;DHT22;8501;49.926;8.404;2023-04-07T08:21:27;8.70;99.90
16767;DHT22;8501;49.926;8.404;2023-04-07T08:23:53;8.80;99.90
16767;DHT22;8501;49.926;8.404;2023-04-07T08:26:19;8.80;99.90
16767;DHT22;8501;49.926;8.404;2023-04-07T08:28:46;8.90;99.90
16767;DHT22;8501;49.926;8.404;2023-04-07T08:31:12;9.00;99.90
16767;DHT22;8501;49.926;8.404;2023-04-07T08:33:37;9.00;99.90
16767;DHT22;8501;49.926;8.404;2023-04-07T08:36:03;9.10;99.90
16767;DHT22;8501;49.926;8.404;2023-04-07T08:38:29;9.10;99.90
16767;DHT22;8501;49.926;8.404;2023-04-07T08:41:03;9.10;99.90
16767;DHT22;8501;49.926;8.404;2023-04-07T08:43:29;9.10;99.90
16767;DHT22;8501;49.926;8.404;2023-04-07T08:45:56;9.20;99.90
16767;DHT22;8501;49.926;8.404;2023-04-07T08:48:23;9.20;99.90
16767;DHT22;8501;49.926;8.404;2023-04-07T08:50:53;9.20;99.90
16767;DHT22;8501;49.926;8.404;2023-04-07T08:53:25;9.20;99.90
16767;DHT22;8501;49.926;8.404;2023-04-07T08:55:55;9.30;99.90
16767;DHT22;8501;49.926;8.404;2023-04-07T08:58:21;9.30;99.90
16767;DHT22;8501;49.926;8.404;2023-04-07T09:00:47;9.30;99.90
16767;DHT22;8501;49.926;8.404;2023-04-07T09:03:15;9.30;99.90
16767;DHT22;8501;49.926;8.404;2023-04-07T09:05:43;9.40;99.90
16767;DHT22;8501;49.926;8.404;2023-04-07T09:08:09;9.40;99.90
16767;DHT22;8501;49.926;8.404;2023-04-07T09:10:35;9.50;99.90
16767;DHT22;8501;49.926;8.404;2023-04-07T09:13:01;9.60;99.90
16767;DHT22;8501;49.926;8.404;2023-04-07T09:15:30;9.60;99.90
16767;DHT22;8501;49.926;8.404;2023-04-07T09:17:57;9.60;99.90
16767;DHT22;8501;49.926;8.404;2023-04-07T09:20:22;9.60;99.90
16767;DHT22;8501;49.926;8.404;2023-04-07T09:22:48;9.60;99.90
16767;DHT22;8501;49.926;8.404;2023-04-07T09:25:22;9.50;99.90
16767;DHT22;8501;49.926;8.404;2023-04-07T09:28:01;9.60;99.90
16767;DHT22;8501;49.926;8.404;2023-04-07T09:30:32;9.70;99.90
16767;DHT22;8501;49.926;8.404;2023-04-07T09:32:59;9.70;99.90
16767;DHT22;8501;49.926;8.404;2023-04-07T09:35:25;9.70;99.90
16767;DHT22;8501;49.926;8.404;2023-04-07T09:40:27;9.60;99.90
16767;DHT22;8501;49.926;8.404;2023-04-07T09:42:53;9.60;99.90
16767;DHT22;8501;49.926;8.404;2023-04-07T09:45:26;9.70;99.90
16767;DHT22;8501;49.926;8.404;2023-04-07T09:47:53;9.70;99.90
16767;DHT22;8501;49.926;8.404;2023-04-07T09:50:37;9.60;99.90
16767;DHT22;8501;49.926;8.404;2023-04-07T09:53:03;9.70;99.90
16767;DHT22;8501;49.926;8.404;2023-04-07T09:55:29;9.80;99.90
16767;DHT22;8501;49.926;8.404;2023-04-07T09:57:55;9.80;99.90
16767;DHT22;8501;49.926;8.404;2023-04-07T10:00:21;9.80;99.90
16767;DHT22;8501;49.926;8.404;2023-04-07T10:02:47;9.80;99.90
16767;DHT22;8501;49.926;8.404;2023-04-07T10:05:13;9.90;99.90
16767;DHT22;8501;49.926;8.404;2023-04-07T10:07:39;9.90;99.90
16767;DHT22;8501;49.926;8.404;2023-04-07T10:10:06;9.90;99.90
16767;DHT22;8501;49.926;8.404;2023-04-07T10:12:34;9.90;99.90
16767;DHT22;8501;49.926;8.404;2023-04-07T10:15:11;9.90;99.90
16767;DHT22;8501;49.926;8.404;2023-04-07T10:17:54;9.90;99.90
16767;DHT22;8501;49.926;8.404;2023-04-07T10:20:21;9.90;99.90
16767;DHT22;8501;49.926;8.404;2023-04-07T10:22:49;9.90;99.90
16767;DHT22;8501;49.926;8.404;2023-04-07T10:25:18;10.00;99.90
16767;DHT22;8501;49.926;8.404;2023-04-07T10:27:55;9.90;99.90
16767;DHT22;8501;49.926;8.404;2023-04-07T10:30:29;9.90;99.90
16767;DHT22;8501;49.926;8.404;2023-04-07T10:32:55;10.00;99.90
16767;DHT22;8501;49.926;8.404;2023-04-07T10:35:22;10.00;99.90
16767;DHT22;8501;49.926;8.404;2023-04-07T10:40:32;10.00;99.90
16767;DHT22;8501;49.926;8.404;2023-04-07T10:42:58;10.00;99.90
16767;DHT22;8501;49.926;8.404;2023-04-07T10:48:12;10.00;99.90
16767;DHT22;8501;49.926;8.404;2023-04-07T10:50:38;10.00;99.90
16767;DHT22;8501;49.926;8.404;2023-04-07T10:53:09;10.00;99.90
16767;DHT22;8501;49.926;8.404;2023-04-07T10:55:43;10.00;99.90
16767;DHT22;8501;49.926;8.404;2023-04-07T11:03:27;10.00;99.90
16767;DHT22;8501;49.926;8.404;2023-04-07T11:06:05;10.00;99.90
16767;DHT22;8501;49.926;8.404;2023-04-07T11:11:09;10.00;99.90
16767;DHT22;8501;49.926;8.404;2023-04-07T11:13:48;10.00;99.90
16767;DHT22;8501;49.926;8.404;2023-04-07T11:16:15;10.00;99.90
16767;DHT22;8501;49.926;8.404;2023-04-07T11:18:42;10.00;99.90
16767;DHT22;8501;49.926;8.404;2023-04-07T11:21:08;10.00;99.90
16767;DHT22;8501;49.926;8.404;2023-04-07T11:23:42;10.00;99.90
16767;DHT22;8501;49.926;8.404;2023-04-07T11:26:09;10.00;99.90
16767;DHT22;8501;49.926;8.404;2023-04-07T11:28:47;10.00;99.90
16767;DHT22;8501;49.926;8.404;2023-04-07T11:31:27;10.00;99.90
16767;DHT22;8501;49.926;8.404;2023-04-07T11:33:55;10.00;99.90
16767;DHT22;8501;49.926;8.404;2023-04-07T11:36:29;10.10;99.90
16767;DHT22;8501;49.926;8.404;2023-04-07T11:38:56;10.10;99.90
16767;DHT22;8501;49.926;8.404;2023-04-07T11:41:23;10.20;99.90
16767;DHT22;8501;49.926;8.404;2023-04-07T11:44:03;10.20;99.90
16767;DHT22;8501;49.926;8.404;2023-04-07T11:46:29;10.30;99.90
16767;DHT22;8501;49.926;8.404;2023-04-07T11:49:11;10.30;99.90
16767;DHT22;8501;49.926;8.404;2023-04-07T11:51:36;10.30;99.90
16767;DHT22;8501;49.926;8.404;2023-04-07T11:54:02;10.30;99.90
16767;DHT22;8501;49.926;8.404;2023-04-07T11:56:28;10.40;99.90
16767;DHT22;8501;49.926;8.404;2023-04-07T11:58:54;10.40;99.90
16767;DHT22;8501;49.926;8.404;2023-04-07T12:01:21;10.40;99.90
16767;DHT22;8501;49.926;8.404;2023-04-07T12:04:02;10.40;99.90
16767;DHT22;8501;49.926;8.404;2023-04-07T12:06:29;10.40;99.90
16767;DHT22;8501;49.926;8.404;2023-04-07T12:08:57;10.50;99.90
16767;DHT22;8501;49.926;8.404;2023-04-07T12:11:23;10.50;99.90
16767;DHT22;8501;49.926;8.404;2023-04-07T12:13:49;10.50;99.90
16767;DHT22;8501;49.926;8.404;2023-04-07T12:16:15;10.60;99.90
16767;DHT22;8501;49.926;8.404;2023-04-07T12:18:40;10.60;99.90
16767;DHT22;8501;49.926;8.404;2023-04-07T12:21:06;10.60;99.90
16767;DHT22;8501;49.926;8.404;2023-04-07T12:23:31;10.60;99.90
16767;DHT22;8501;49.926;8.404;2023-04-07T12:25:57;10.70;99.90
16767;DHT22;8501;49.926;8.404;2023-04-07T12:28:22;10.70;99.90
16767;DHT22;8501;49.926;8.404;2023-04-07T12:30:48;10.70;99.90
16767;DHT22;8501;49.926;8.404;2023-04-07T12:33:13;10.70;99.90
16767;DHT22;8501;49.926;8.404;2023-04-07T12:35:39;10.70;99.90
16767;DHT22;8501;49.926;8.404;2023-04-07T12:38:04;10.70;99.90
16767;DHT22;8501;49.926;8.404;2023-04-07T12:40:31;10.80;99.90
16767;DHT22;8501;49.926;8.404;2023-04-07T12:42:56;10.80;99.90
16767;DHT22;8501;49.926;8.404;2023-04-07T12:45:25;10.80;99.90
16767;DHT22;8501;49.926;8.404;2023-04-07T12:47:50;10.80;99.90
16767;DHT22;8501;49.926;8.404;2023-04-07T12:50:16;10.80;99.90
16767;DHT22;8501;49.926;8.404;2023-04-07T12:52:41;10.80;99.90
16767;DHT22;8501;49.926;8.404;2023-04-07T12:55:07;10.80;99.90
16767;DHT22;8501;49.926;8.404;2023-04-07T12:57:33;10.80;99.90
16767;DHT22;8501;49.926;8.404;2023-04-07T12:59:58;10.80;99.90
16767;DHT22;8501;49.926;8.404;2023-04-07T13:02:24;10.80;99.90
16767;DHT22;8501;49.926;8.404;2023-04-07T13:04:49;10.70;99.90
16767;DHT22;8501;49.926;8.404;2023-04-07T13:07:15;10.70;99.90
16767;DHT22;8501;49.926;8.404;2023-04-07T13:09:41;10.80;99.90
16767;DHT22;8501;49.926;8.404;2023-04-07T13:12:10;10.70;99.90
16767;DHT22;8501;49.926;8.404;2023-04-07T13:14:40;10.60;99.90
16767;DHT22;8501;49.926;8.404;2023-04-07T13:17:07;10.60;99.90
16767;DHT22;8501;49.926;8.404;2023-04-07T13:19:34;10.60;99.90
16767;DHT22;8501;49.926;8.404;2023-04-07T13:22:00;10.60;99.90
16767;DHT22;8501;49.926;8.404;2023-04-07T13:24:25;10.50;99.90
16767;DHT22;8501;49.926;8.404;2023-04-07T13:26:51;10.50;99.90
16767;DHT22;8501;49.926;8.404;2023-04-07T13:29:17;10.50;99.90
16767;DHT22;8501;49.926;8.404;2023-04-07T13:31:46;10.50;99.90
16767;DHT22;8501;49.926;8.404;2023-04-07T13:34:13;10.50;99.90
16767;DHT22;8501;49.926;8.404;2023-04-07T13:36:39;10.50;99.90
16767;DHT22;8501;49.926;8.404;2023-04-07T13:39:06;10.50;99.90
16767;DHT22;8501;49.926;8.404;2023-04-07T13:41:32;10.50;99.90
16767;DHT22;8501;49.926;8.404;2023-04-07T13:43:57;10.50;99.90
16767;DHT22;8501;49.926;8.404;2023-04-07T13:46:23;10.50;99.90
16767;DHT22;8501;49.926;8.404;2023-04-07T13:48:49;10.40;99.90
16767;DHT22;8501;49.926;8.404;2023-04-07T13:51:15;10.50;99.90
16767;DHT22;8501;49.926;8.404;2023-04-07T13:53:41;10.50;99.90
16767;DHT22;8501;49.926;8.404;2023-04-07T13:56:07;10.50;99.90
16767;DHT22;8501;49.926;8.404;2023-04-07T13:58:34;10.50;99.90
16767;DHT22;8501;49.926;8.404;2023-04-07T14:01:00;10.50;99.90
16767;DHT22;8501;49.926;8.404;2023-04-07T14:03:26;10.50;99.90
16767;DHT22;8501;49.926;8.404;2023-04-07T14:05:52;10.50;99.90
16767;DHT22;8501;49.926;8.404;2023-04-07T14:08:20;10.40;99.90
16767;DHT22;8501;49.926;8.404;2023-04-07T14:10:48;10.40;99.90
16767;DHT22;8501;49.926;8.404;2023-04-07T14:13:14;10.40;99.90
16767;DHT22;8501;49.926;8.404;2023-04-07T14:15:40;10.50;99.90
16767;DHT22;8501;49.926;8.404;2023-04-07T14:18:05;10.50;99.90
16767;DHT22;8501;49.926;8.404;2023-04-07T14:20:32;10.50;99.90
16767;DHT22;8501;49.926;8.404;2023-04-07T14:22:57;10.60;99.90
16767;DHT22;8501;49.926;8.404;2023-04-07T14:25:23;10.60;99.90
16767;DHT22;8501;49.926;8.404;2023-04-07T14:27:49;10.60;99.90
16767;DHT22;8501;49.926;8.404;2023-04-07T14:30:15;10.60;99.90
16767;DHT22;8501;49.926;8.404;2023-04-07T14:32:41;10.60;99.90
16767;DHT22;8501;49.926;8.404;2023-04-07T14:35:07;10.60;99.90
16767;DHT22;8501;49.926;8.404;2023-04-07T14:37:32;10.50;99.90
16767;DHT22;8501;49.926;8.404;2023-04-07T14:40:00;10.60;99.90
16767;DHT22;8501;49.926;8.404;2023-04-07T14:42:26;10.60;99.90
16767;DHT22;8501;49.926;8.404;2023-04-07T14:44:54;10.70;99.90
16767;DHT22;8501;49.926;8.404;2023-04-07T14:47:20;10.70;99.90
16767;DHT22;8501;49.926;8.404;2023-04-07T14:49:46;10.80;99.90
16767;DHT22;8501;49.926;8.404;2023-04-07T14:52:11;10.80;99.90
16767;DHT22;8501;49.926;8.404;2023-04-07T14:54:38;10.80;99.90
16767;DHT22;8501;49.926;8.404;2023-04-07T14:57:04;10.80;99.90
16767;DHT22;8501;49.926;8.404;2023-04-07T14:59:29;10.80;99.90
16767;DHT22;8501;49.926;8.404;2023-04-07T15:01:55;11.00;99.90
16767;DHT22;8501;49.926;8.404;2023-04-07T15:04:20;11.30;99.90
16767;DHT22;8501;49.926;8.404;2023-04-07T15:06:46;11.40;99.90
16767;DHT22;8501;49.926;8.404;2023-04-07T15:09:12;11.40;99.90
16767;DHT22;8501;49.926;8.404;2023-04-07T15:11:37;11.40;99.90
16767;DHT22;8501;49.926;8.404;2023-04-07T15:14:03;11.40;99.90
16767;DHT22;8501;49.926;8.404;2023-04-07T15:16:31;11.30;99.90
16767;DHT22;8501;49.926;8.404;2023-04-07T15:18:56;11.30;99.90
16767;DHT22;8501;49.926;8.404;2023-04-07T15:21:22;11.30;99.90
16767;DHT22;8501;49.926;8.404;2023-04-07T15:23:47;11.30;99.90
16767;DHT22;8501;49.926;8.404;2023-04-07T15:26:13;11.30;99.90
16767;DHT22;8501;49.926;8.404;2023-04-07T15:28:39;11.20;99.90
16767;DHT22;8501;49.926;8.404;2023-04-07T15:31:04;11.30;99.90
16767;DHT22;8501;49.926;8.404;2023-04-07T15:33:38;11.30;99.90
16767;DHT22;8501;49.926;8.404;2023-04-07T15:36:05;11.30;99.90
16767;DHT22;8501;49.926;8.404;2023-04-07T15:38:31;11.30;99.90
16767;DHT22;8501;49.926;8.404;2023-04-07T15:40:57;11.30;99.90
16767;DHT22;8501;49.926;8.404;2023-04-07T15:43:23;11.20;99.90
16767;DHT22;8501;49.926;8.404;2023-04-07T15:45:49;11.30;99.90
16767;DHT22;8501;49.926;8.404;2023-04-07T15:48:16;11.20;99.90
16767;DHT22;8501;49.926;8.404;2023-04-07T15:50:42;11.20;99.90
16767;DHT22;8501;49.926;8.404;2023-04-07T15:53:08;11.30;99.90
16767;DHT22;8501;49.926;8.404;2023-04-07T15:55:35;11.30;99.90
16767;DHT22;8501;49.926;8.404;2023-04-07T15:58:01;11.30;99.90
16767;DHT22;8501;49.926;8.404;2023-04-07T16:00:29;11.30;99.90
16767;DHT22;8501;49.926;8.404;2023-04-07T16:02:56;11.20;99.90
16767;DHT22;8501;49.926;8.404;2023-04-07T16:05:22;11.20;99.90
16767;DHT22;8501;49.926;8.404;2023-04-07T16:07:47;11.20;99.90
16767;DHT22;8501;49.926;8.404;2023-04-07T16:10:13;11.30;99.90
16767;DHT22;8501;49.926;8.404;2023-04-07T16:12:39;11.30;99.90
16767;DHT22;8501;49.926;8.404;2023-04-07T16:15:08;11.30;99.90
16767;DHT22;8501;49.926;8.404;2023-04-07T16:17:37;11.40;99.90
16767;DHT22;8501;49.926;8.404;2023-04-07T16:20:07;11.40;99.90
16767;DHT22;8501;49.926;8.404;2023-04-07T16:22:41;11.40;99.90
16767;DHT22;8501;49.926;8.404;2023-04-07T16:25:08;11.40;99.90
16767;DHT22;8501;49.926;8.404;2023-04-07T16:27:33;11.40;99.90